sensor_id;sensor_type;location;lat;lon;timestamp;P1;durP1;ratioP1;P2;durP2;ratioP2
51686;SDS011;37774;52.192;4.584;2023-02-28T00:00:01;4.28;;;2.08;;
51686;SDS011;37774;52.192;4.584;2023-02-28T00:02:33;3.53;;;1.83;;
51686;SDS011;37774;52.192;4.584;2023-02-28T00:05:00;8.48;;;3.15;;
51686;SDS011;37774;52.192;4.584;2023-02-28T00:07:28;6.15;;;1.80;;
51686;SDS011;37774;52.192;4.584;2023-02-28T00:09:55;11.57;;;2.63;;
51686;SDS011;37774;52.192;4.584;2023-02-28T00:12:23;5.03;;;2.58;;
51686;SDS011;37774;52.192;4.584;2023-02-28T00:14:51;4.53;;;1.92;;
51686;SDS011;37774;52.192;4.584;2023-02-28T00:17:17;5.78;;;1.75;;
51686;SDS011;37774;52.192;4.584;2023-02-28T00:19:46;4.95;;;1.70;;
51686;SDS011;37774;52.192;4.584;2023-02-28T00:22:14;9.55;;;2.25;;
51686;SDS011;37774;52.192;4.584;2023-02-28T00:24:41;10.45;;;2.40;;
51686;SDS011;37774;52.192;4.584;2023-02-28T00:27:08;6.32;;;2.35;;
51686;SDS011;37774;52.192;4.584;2023-02-28T00:29:36;3.97;;;1.92;;
51686;SDS011;37774;52.192;4.584;2023-02-28T00:32:04;9.80;;;2.83;;
51686;SDS011;37774;52.192;4.584;2023-02-28T00:34:31;4.15;;;2.15;;
51686;SDS011;37774;52.192;4.584;2023-02-28T00:37:02;6.65;;;2.58;;
51686;SDS011;37774;52.192;4.584;2023-02-28T00:39:31;4.63;;;2.30;;
51686;SDS011;37774;52.192;4.584;2023-02-28T00:41:59;8.43;;;2.40;;
51686;SDS011;37774;52.192;4.584;2023-02-28T00:44:27;6.47;;;2.53;;
51686;SDS011;37774;52.192;4.584;2023-02-28T00:46:55;9.32;;;2.63;;
51686;SDS011;37774;52.192;4.584;2023-02-28T00:49:22;4.22;;;1.92;;
51686;SDS011;37774;52.192;4.584;2023-02-28T00:51:50;6.25;;;2.00;;
51686;SDS011;37774;52.192;4.584;2023-02-28T00:54:18;4.82;;;2.67;;
51686;SDS011;37774;52.192;4.584;2023-02-28T00:56:45;6.07;;;2.58;;
51686;SDS011;37774;52.192;4.584;2023-02-28T00:59:12;5.53;;;2.20;;
51686;SDS011;37774;52.192;4.584;2023-02-28T01:01:40;5.57;;;2.22;;
51686;SDS011;37774;52.192;4.584;2023-02-28T01:04:08;11.90;;;2.25;;
51686;SDS011;37774;52.192;4.584;2023-02-28T01:06:35;4.38;;;2.20;;
51686;SDS011;37774;52.192;4.584;2023-02-28T01:09:02;9.57;;;2.42;;
51686;SDS011;37774;52.192;4.584;2023-02-28T01:11:31;12.05;;;2.60;;
51686;SDS011;37774;52.192;4.584;2023-02-28T01:13:58;8.73;;;2.65;;
51686;SDS011;37774;52.192;4.584;2023-02-28T01:16:26;6.65;;;2.72;;
51686;SDS011;37774;52.192;4.584;2023-02-28T01:18:53;5.80;;;2.10;;
51686;SDS011;37774;52.192;4.584;2023-02-28T01:21:22;6.82;;;2.47;;
51686;SDS011;37774;52.192;4.584;2023-02-28T01:23:50;4.95;;;2.42;;
51686;SDS011;37774;52.192;4.584;2023-02-28T01:26:18;8.40;;;2.60;;
51686;SDS011;37774;52.192;4.584;2023-02-28T01:28:48;9.60;;;3.22;;
51686;SDS011;37774;52.192;4.584;2023-02-28T01:31:16;12.80;;;2.72;;
51686;SDS011;37774;52.192;4.584;2023-02-28T01:33:44;7.70;;;2.50;;
51686;SDS011;37774;52.192;4.584;2023-02-28T01:36:12;11.18;;;2.60;;
51686;SDS011;37774;52.192;4.584;2023-02-28T01:38:42;17.98;;;2.38;;
51686;SDS011;37774;52.192;4.584;2023-02-28T01:41:12;7.93;;;3.17;;
51686;SDS011;37774;52.192;4.584;2023-02-28T01:43:53;5.85;;;2.75;;
51686;SDS011;37774;52.192;4.584;2023-02-28T01:46:22;5.50;;;2.67;;
51686;SDS011;37774;52.192;4.584;2023-02-28T01:48:50;8.52;;;2.95;;
51686;SDS011;37774;52.192;4.584;2023-02-28T01:51:21;5.00;;;2.50;;
51686;SDS011;37774;52.192;4.584;2023-02-28T01:53:53;8.50;;;2.53;;
51686;SDS011;37774;52.192;4.584;2023-02-28T01:56:22;6.40;;;2.63;;
51686;SDS011;37774;52.192;4.584;2023-02-28T01:58:54;9.55;;;2.88;;
51686;SDS011;37774;52.192;4.584;2023-02-28T02:01:21;11.35;;;2.83;;
51686;SDS011;37774;52.192;4.584;2023-02-28T02:03:50;4.93;;;2.72;;
51686;SDS011;37774;52.192;4.584;2023-02-28T02:06:20;4.15;;;2.22;;
51686;SDS011;37774;52.192;4.584;2023-02-28T02:08:48;11.25;;;3.05;;
51686;SDS011;37774;52.192;4.584;2023-02-28T02:11:17;10.27;;;2.47;;
51686;SDS011;37774;52.192;4.584;2023-02-28T02:13:54;8.80;;;2.63;;
51686;SDS011;37774;52.192;4.584;2023-02-28T02:16:34;8.13;;;2.92;;
51686;SDS011;37774;52.192;4.584;2023-02-28T02:19:15;10.10;;;2.72;;
51686;SDS011;37774;52.192;4.584;2023-02-28T02:22:03;8.32;;;3.05;;
51686;SDS011;37774;52.192;4.584;2023-02-28T02:24:54;7.28;;;3.00;;
51686;SDS011;37774;52.192;4.584;2023-02-28T02:27:43;8.18;;;2.85;;
51686;SDS011;37774;52.192;4.584;2023-02-28T02:33:45;7.97;;;3.30;;
51686;SDS011;37774;52.192;4.584;2023-02-28T02:36:49;6.50;;;2.83;;
51686;SDS011;37774;52.192;4.584;2023-02-28T02:39:22;14.65;;;3.35;;
51686;SDS011;37774;52.192;4.584;2023-02-28T02:41:58;7.07;;;3.40;;
51686;SDS011;37774;52.192;4.584;2023-02-28T02:44:30;8.30;;;2.38;;
51686;SDS011;37774;52.192;4.584;2023-02-28T02:47:03;21.17;;;3.60;;
51686;SDS011;37774;52.192;4.584;2023-02-28T02:49:35;13.52;;;3.85;;
51686;SDS011;37774;52.192;4.584;2023-02-28T02:52:07;9.07;;;3.03;;
51686;SDS011;37774;52.192;4.584;2023-02-28T02:54:38;8.38;;;3.17;;
51686;SDS011;37774;52.192;4.584;2023-02-28T02:57:10;6.82;;;3.05;;
51686;SDS011;37774;52.192;4.584;2023-02-28T02:59:43;8.65;;;3.05;;
51686;SDS011;37774;52.192;4.584;2023-02-28T03:02:11;9.75;;;3.10;;
51686;SDS011;37774;52.192;4.584;2023-02-28T03:04:42;18.70;;;3.70;;
51686;SDS011;37774;52.192;4.584;2023-02-28T03:07:13;9.95;;;3.60;;
51686;SDS011;37774;52.192;4.584;2023-02-28T03:09:40;8.75;;;3.65;;
51686;SDS011;37774;52.192;4.584;2023-02-28T03:12:09;15.55;;;3.42;;
51686;SDS011;37774;52.192;4.584;2023-02-28T03:14:40;5.25;;;3.17;;
51686;SDS011;37774;52.192;4.584;2023-02-28T03:17:20;10.80;;;3.92;;
51686;SDS011;37774;52.192;4.584;2023-02-28T03:20:01;12.68;;;3.25;;
51686;SDS011;37774;52.192;4.584;2023-02-28T03:22:39;5.38;;;3.53;;
51686;SDS011;37774;52.192;4.584;2023-02-28T03:25:17;12.73;;;3.60;;
51686;SDS011;37774;52.192;4.584;2023-02-28T03:27:49;11.90;;;3.70;;
51686;SDS011;37774;52.192;4.584;2023-02-28T03:30:27;6.47;;;3.33;;
51686;SDS011;37774;52.192;4.584;2023-02-28T03:33:01;10.20;;;3.28;;
51686;SDS011;37774;52.192;4.584;2023-02-28T03:35:34;6.93;;;3.15;;
51686;SDS011;37774;52.192;4.584;2023-02-28T03:38:06;5.28;;;3.50;;
51686;SDS011;37774;52.192;4.584;2023-02-28T03:40:39;15.23;;;4.15;;
51686;SDS011;37774;52.192;4.584;2023-02-28T03:43:09;11.40;;;3.90;;
51686;SDS011;37774;52.192;4.584;2023-02-28T03:45:42;8.90;;;3.25;;
51686;SDS011;37774;52.192;4.584;2023-02-28T03:48:13;11.40;;;3.75;;
51686;SDS011;37774;52.192;4.584;2023-02-28T03:50:44;8.27;;;3.90;;
51686;SDS011;37774;52.192;4.584;2023-02-28T03:53:16;10.15;;;4.15;;
51686;SDS011;37774;52.192;4.584;2023-02-28T03:55:48;5.85;;;3.50;;
51686;SDS011;37774;52.192;4.584;2023-02-28T03:58:20;9.30;;;3.72;;
51686;SDS011;37774;52.192;4.584;2023-02-28T04:00:54;8.93;;;3.28;;
51686;SDS011;37774;52.192;4.584;2023-02-28T04:03:25;6.35;;;3.05;;
51686;SDS011;37774;52.192;4.584;2023-02-28T04:05:52;8.50;;;3.40;;
51686;SDS011;37774;52.192;4.584;2023-02-28T04:08:22;8.55;;;3.53;;
51686;SDS011;37774;52.192;4.584;2023-02-28T04:10:50;7.10;;;3.35;;
51686;SDS011;37774;52.192;4.584;2023-02-28T04:13:21;10.30;;;4.05;;
51686;SDS011;37774;52.192;4.584;2023-02-28T04:15:48;13.82;;;3.85;;
51686;SDS011;37774;52.192;4.584;2023-02-28T04:18:15;10.68;;;4.10;;
51686;SDS011;37774;52.192;4.584;2023-02-28T04:20:41;6.93;;;3.85;;
51686;SDS011;37774;52.192;4.584;2023-02-28T04:23:08;12.02;;;4.47;;
51686;SDS011;37774;52.192;4.584;2023-02-28T04:25:37;13.05;;;3.83;;
51686;SDS011;37774;52.192;4.584;2023-02-28T04:28:05;15.93;;;4.05;;
51686;SDS011;37774;52.192;4.584;2023-02-28T04:30:32;9.20;;;4.22;;
51686;SDS011;37774;52.192;4.584;2023-02-28T04:32:59;13.95;;;4.57;;
51686;SDS011;37774;52.192;4.584;2023-02-28T04:35:26;8.07;;;4.10;;
51686;SDS011;37774;52.192;4.584;2023-02-28T04:37:53;12.07;;;3.78;;
51686;SDS011;37774;52.192;4.584;2023-02-28T04:40:20;11.18;;;4.82;;
51686;SDS011;37774;52.192;4.584;2023-02-28T04:42:48;11.13;;;4.80;;
51686;SDS011;37774;52.192;4.584;2023-02-28T04:45:15;7.68;;;4.05;;
51686;SDS011;37774;52.192;4.584;2023-02-28T04:47:42;19.65;;;4.10;;
51686;SDS011;37774;52.192;4.584;2023-02-28T04:50:09;9.90;;;4.13;;
51686;SDS011;37774;52.192;4.584;2023-02-28T04:52:36;7.25;;;3.63;;
51686;SDS011;37774;52.192;4.584;2023-02-28T04:55:03;12.23;;;3.40;;
51686;SDS011;37774;52.192;4.584;2023-02-28T04:57:31;6.63;;;3.55;;
51686;SDS011;37774;52.192;4.584;2023-02-28T04:59:59;7.95;;;3.72;;
51686;SDS011;37774;52.192;4.584;2023-02-28T05:02:26;7.35;;;3.78;;
51686;SDS011;37774;52.192;4.584;2023-02-28T05:04:52;8.68;;;4.32;;
51686;SDS011;37774;52.192;4.584;2023-02-28T05:07:19;12.68;;;4.07;;
51686;SDS011;37774;52.192;4.584;2023-02-28T05:09:46;7.65;;;4.20;;
51686;SDS011;37774;52.192;4.584;2023-02-28T05:12:13;17.80;;;3.80;;
51686;SDS011;37774;52.192;4.584;2023-02-28T05:14:40;10.77;;;3.40;;
51686;SDS011;37774;52.192;4.584;2023-02-28T05:17:08;9.93;;;3.65;;
51686;SDS011;37774;52.192;4.584;2023-02-28T05:19:36;7.50;;;3.47;;
51686;SDS011;37774;52.192;4.584;2023-02-28T05:22:03;10.30;;;3.92;;
51686;SDS011;37774;52.192;4.584;2023-02-28T05:24:29;13.05;;;4.20;;
51686;SDS011;37774;52.192;4.584;2023-02-28T05:26:56;9.82;;;3.25;;
51686;SDS011;37774;52.192;4.584;2023-02-28T05:29:23;14.52;;;3.90;;
51686;SDS011;37774;52.192;4.584;2023-02-28T05:31:50;7.47;;;3.63;;
51686;SDS011;37774;52.192;4.584;2023-02-28T05:34:18;15.95;;;3.92;;
51686;SDS011;37774;52.192;4.584;2023-02-28T05:36:45;8.57;;;3.55;;
51686;SDS011;37774;52.192;4.584;2023-02-28T05:39:12;9.80;;;4.05;;
51686;SDS011;37774;52.192;4.584;2023-02-28T05:41:42;8.30;;;4.05;;
51686;SDS011;37774;52.192;4.584;2023-02-28T05:44:09;8.38;;;3.33;;
51686;SDS011;37774;52.192;4.584;2023-02-28T05:46:37;7.97;;;4.47;;
51686;SDS011;37774;52.192;4.584;2023-02-28T05:49:04;9.88;;;4.45;;
51686;SDS011;37774;52.192;4.584;2023-02-28T05:51:32;7.25;;;3.85;;
51686;SDS011;37774;52.192;4.584;2023-02-28T05:54:02;10.18;;;4.15;;
51686;SDS011;37774;52.192;4.584;2023-02-28T05:56:29;9.20;;;4.30;;
51686;SDS011;37774;52.192;4.584;2023-02-28T05:58:56;11.10;;;5.45;;
51686;SDS011;37774;52.192;4.584;2023-02-28T06:01:24;8.93;;;5.05;;
51686;SDS011;37774;52.192;4.584;2023-02-28T06:03:57;11.45;;;5.45;;
51686;SDS011;37774;52.192;4.584;2023-02-28T06:06:25;12.27;;;4.60;;
51686;SDS011;37774;52.192;4.584;2023-02-28T06:08:54;15.57;;;5.45;;
51686;SDS011;37774;52.192;4.584;2023-02-28T06:11:21;8.68;;;4.45;;
51686;SDS011;37774;52.192;4.584;2023-02-28T06:13:53;10.30;;;4.22;;
51686;SDS011;37774;52.192;4.584;2023-02-28T06:16:21;7.88;;;4.22;;
51686;SDS011;37774;52.192;4.584;2023-02-28T06:18:48;11.18;;;5.70;;
51686;SDS011;37774;52.192;4.584;2023-02-28T06:21:16;13.93;;;5.10;;
51686;SDS011;37774;52.192;4.584;2023-02-28T06:23:43;11.15;;;5.28;;
51686;SDS011;37774;52.192;4.584;2023-02-28T06:26:11;16.65;;;5.32;;
51686;SDS011;37774;52.192;4.584;2023-02-28T06:28:38;10.50;;;5.07;;
51686;SDS011;37774;52.192;4.584;2023-02-28T06:31:05;11.32;;;5.10;;
51686;SDS011;37774;52.192;4.584;2023-02-28T06:33:33;17.55;;;4.78;;
51686;SDS011;37774;52.192;4.584;2023-02-28T06:36:01;15.00;;;6.03;;
51686;SDS011;37774;52.192;4.584;2023-02-28T06:38:28;17.35;;;5.15;;
51686;SDS011;37774;52.192;4.584;2023-02-28T06:40:56;9.85;;;4.82;;
51686;SDS011;37774;52.192;4.584;2023-02-28T06:43:25;11.98;;;5.10;;
51686;SDS011;37774;52.192;4.584;2023-02-28T06:45:55;9.65;;;5.15;;
51686;SDS011;37774;52.192;4.584;2023-02-28T06:48:22;17.92;;;6.10;;
51686;SDS011;37774;52.192;4.584;2023-02-28T06:50:49;17.15;;;6.00;;
51686;SDS011;37774;52.192;4.584;2023-02-28T06:53:16;11.38;;;6.47;;
51686;SDS011;37774;52.192;4.584;2023-02-28T06:55:43;12.40;;;5.80;;
51686;SDS011;37774;52.192;4.584;2023-02-28T06:58:10;13.68;;;6.28;;
51686;SDS011;37774;52.192;4.584;2023-02-28T07:00:42;17.15;;;5.45;;
51686;SDS011;37774;52.192;4.584;2023-02-28T07:03:09;14.55;;;6.28;;
51686;SDS011;37774;52.192;4.584;2023-02-28T07:05:36;12.13;;;5.90;;
51686;SDS011;37774;52.192;4.584;2023-02-28T07:08:04;9.45;;;5.75;;
51686;SDS011;37774;52.192;4.584;2023-02-28T07:10:32;21.05;;;5.70;;
51686;SDS011;37774;52.192;4.584;2023-02-28T07:12:59;7.55;;;3.58;;
51686;SDS011;37774;52.192;4.584;2023-02-28T07:15:26;8.00;;;3.33;;
51686;SDS011;37774;52.192;4.584;2023-02-28T07:17:54;4.07;;;3.15;;
51686;SDS011;37774;52.192;4.584;2023-02-28T07:20:22;5.30;;;3.30;;
51686;SDS011;37774;52.192;4.584;2023-02-28T07:22:49;9.10;;;3.63;;
51686;SDS011;37774;52.192;4.584;2023-02-28T07:25:21;9.98;;;3.88;;
51686;SDS011;37774;52.192;4.584;2023-02-28T07:27:48;4.95;;;2.80;;
51686;SDS011;37774;52.192;4.584;2023-02-28T07:30:15;6.57;;;3.03;;
51686;SDS011;37774;52.192;4.584;2023-02-28T07:32:42;5.18;;;3.33;;
51686;SDS011;37774;52.192;4.584;2023-02-28T07:35:10;5.45;;;3.53;;
51686;SDS011;37774;52.192;4.584;2023-02-28T07:37:38;14.73;;;4.32;;
51686;SDS011;37774;52.192;4.584;2023-02-28T07:40:05;5.68;;;3.63;;
51686;SDS011;37774;52.192;4.584;2023-02-28T07:42:36;14.82;;;3.67;;
51686;SDS011;37774;52.192;4.584;2023-02-28T07:45:03;6.95;;;3.67;;
51686;SDS011;37774;52.192;4.584;2023-02-28T07:47:31;9.77;;;3.03;;
51686;SDS011;37774;52.192;4.584;2023-02-28T07:49:58;8.00;;;3.30;;
51686;SDS011;37774;52.192;4.584;2023-02-28T07:52:27;14.18;;;3.53;;
51686;SDS011;37774;52.192;4.584;2023-02-28T07:54:53;8.38;;;3.75;;
51686;SDS011;37774;52.192;4.584;2023-02-28T07:57:20;10.52;;;3.60;;
51686;SDS011;37774;52.192;4.584;2023-02-28T07:59:47;6.55;;;3.63;;
51686;SDS011;37774;52.192;4.584;2023-02-28T08:02:14;13.18;;;4.82;;
51686;SDS011;37774;52.192;4.584;2023-02-28T08:04:42;9.98;;;3.70;;
51686;SDS011;37774;52.192;4.584;2023-02-28T08:07:09;5.15;;;2.95;;
51686;SDS011;37774;52.192;4.584;2023-02-28T08:09:39;5.78;;;3.92;;
51686;SDS011;37774;52.192;4.584;2023-02-28T08:12:07;4.10;;;2.85;;
51686;SDS011;37774;52.192;4.584;2023-02-28T08:14:34;5.68;;;3.22;;
51686;SDS011;37774;52.192;4.584;2023-02-28T08:17:01;8.25;;;3.55;;
51686;SDS011;37774;52.192;4.584;2023-02-28T08:19:28;4.35;;;3.10;;
51686;SDS011;37774;52.192;4.584;2023-02-28T08:21:55;11.45;;;3.55;;
51686;SDS011;37774;52.192;4.584;2023-02-28T08:24:22;7.70;;;3.75;;
51686;SDS011;37774;52.192;4.584;2023-02-28T08:26:51;5.93;;;3.53;;
51686;SDS011;37774;52.192;4.584;2023-02-28T08:29:18;7.22;;;3.60;;
51686;SDS011;37774;52.192;4.584;2023-02-28T08:31:45;6.25;;;3.50;;
51686;SDS011;37774;52.192;4.584;2023-02-28T08:34:12;6.82;;;3.83;;
51686;SDS011;37774;52.192;4.584;2023-02-28T08:36:41;6.82;;;3.95;;
51686;SDS011;37774;52.192;4.584;2023-02-28T08:39:10;8.60;;;4.10;;
51686;SDS011;37774;52.192;4.584;2023-02-28T08:41:37;7.10;;;3.42;;
51686;SDS011;37774;52.192;4.584;2023-02-28T08:44:05;6.25;;;3.90;;
51686;SDS011;37774;52.192;4.584;2023-02-28T08:46:32;6.80;;;3.92;;
51686;SDS011;37774;52.192;4.584;2023-02-28T08:48:59;6.07;;;3.53;;
51686;SDS011;37774;52.192;4.584;2023-02-28T08:51:27;7.22;;;4.43;;
51686;SDS011;37774;52.192;4.584;2023-02-28T08:53:55;10.63;;;4.45;;
51686;SDS011;37774;52.192;4.584;2023-02-28T08:56:24;7.15;;;3.90;;
51686;SDS011;37774;52.192;4.584;2023-02-28T08:58:51;12.88;;;4.25;;
51686;SDS011;37774;52.192;4.584;2023-02-28T09:01:24;7.60;;;4.63;;
51686;SDS011;37774;52.192;4.584;2023-02-28T09:03:53;9.75;;;4.93;;
51686;SDS011;37774;52.192;4.584;2023-02-28T09:06:22;8.45;;;5.60;;
51686;SDS011;37774;52.192;4.584;2023-02-28T09:08:50;8.55;;;4.85;;
51686;SDS011;37774;52.192;4.584;2023-02-28T09:11:17;6.85;;;3.55;;
51686;SDS011;37774;52.192;4.584;2023-02-28T09:13:45;11.00;;;4.95;;
51686;SDS011;37774;52.192;4.584;2023-02-28T09:16:13;7.97;;;4.53;;
51686;SDS011;37774;52.192;4.584;2023-02-28T09:18:43;11.07;;;5.50;;
51686;SDS011;37774;52.192;4.584;2023-02-28T09:21:11;7.85;;;4.40;;
51686;SDS011;37774;52.192;4.584;2023-02-28T09:23:41;7.72;;;4.05;;
51686;SDS011;37774;52.192;4.584;2023-02-28T09:26:12;10.73;;;4.55;;
51686;SDS011;37774;52.192;4.584;2023-02-28T09:28:40;9.32;;;4.75;;
51686;SDS011;37774;52.192;4.584;2023-02-28T09:31:10;9.00;;;4.68;;
51686;SDS011;37774;52.192;4.584;2023-02-28T09:33:38;8.18;;;5.00;;
51686;SDS011;37774;52.192;4.584;2023-02-28T09:36:07;7.32;;;4.38;;
51686;SDS011;37774;52.192;4.584;2023-02-28T09:38:35;9.88;;;4.38;;
51686;SDS011;37774;52.192;4.584;2023-02-28T09:41:03;11.20;;;3.97;;
51686;SDS011;37774;52.192;4.584;2023-02-28T09:43:37;6.63;;;4.43;;
51686;SDS011;37774;52.192;4.584;2023-02-28T09:46:11;6.28;;;4.00;;
51686;SDS011;37774;52.192;4.584;2023-02-28T09:48:47;9.38;;;4.28;;
51686;SDS011;37774;52.192;4.584;2023-02-28T09:51:24;8.18;;;4.35;;
51686;SDS011;37774;52.192;4.584;2023-02-28T09:53:56;6.30;;;3.70;;
51686;SDS011;37774;52.192;4.584;2023-02-28T09:56:24;7.65;;;4.63;;
51686;SDS011;37774;52.192;4.584;2023-02-28T09:58:56;7.35;;;4.30;;
51686;SDS011;37774;52.192;4.584;2023-02-28T10:01:28;12.20;;;3.22;;
51686;SDS011;37774;52.192;4.584;2023-02-28T10:04:03;6.63;;;3.55;;
51686;SDS011;37774;52.192;4.584;2023-02-28T10:06:38;10.35;;;3.85;;
51686;SDS011;37774;52.192;4.584;2023-02-28T10:09:10;9.52;;;3.53;;
51686;SDS011;37774;52.192;4.584;2023-02-28T10:11:41;5.53;;;3.08;;
51686;SDS011;37774;52.192;4.584;2023-02-28T10:14:11;4.72;;;3.22;;
51686;SDS011;37774;52.192;4.584;2023-02-28T10:16:42;8.63;;;2.80;;
51686;SDS011;37774;52.192;4.584;2023-02-28T10:19:18;5.32;;;3.05;;
51686;SDS011;37774;52.192;4.584;2023-02-28T10:21:52;6.28;;;3.42;;
51686;SDS011;37774;52.192;4.584;2023-02-28T10:24:25;4.65;;;3.08;;
51686;SDS011;37774;52.192;4.584;2023-02-28T10:26:58;5.45;;;3.03;;
51686;SDS011;37774;52.192;4.584;2023-02-28T10:29:26;8.65;;;3.72;;
51686;SDS011;37774;52.192;4.584;2023-02-28T10:31:55;12.25;;;4.22;;
51686;SDS011;37774;52.192;4.584;2023-02-28T10:34:22;8.88;;;3.63;;
51686;SDS011;37774;52.192;4.584;2023-02-28T10:36:52;4.80;;;3.13;;
51686;SDS011;37774;52.192;4.584;2023-02-28T10:39:36;5.45;;;3.33;;
51686;SDS011;37774;52.192;4.584;2023-02-28T10:42:04;11.82;;;3.45;;
51686;SDS011;37774;52.192;4.584;2023-02-28T10:44:44;6.93;;;3.10;;
51686;SDS011;37774;52.192;4.584;2023-02-28T10:47:13;7.72;;;3.45;;
51686;SDS011;37774;52.192;4.584;2023-02-28T10:49:46;8.45;;;3.63;;
51686;SDS011;37774;52.192;4.584;2023-02-28T10:52:15;4.38;;;2.33;;
51686;SDS011;37774;52.192;4.584;2023-02-28T10:55:13;4.68;;;2.58;;
51686;SDS011;37774;52.192;4.584;2023-02-28T10:57:42;10.98;;;2.63;;
51686;SDS011;37774;52.192;4.584;2023-02-28T11:00:13;5.88;;;2.30;;
51686;SDS011;37774;52.192;4.584;2023-02-28T11:02:42;4.78;;;2.65;;
51686;SDS011;37774;52.192;4.584;2023-02-28T11:07:59;5.72;;;3.47;;
51686;SDS011;37774;52.192;4.584;2023-02-28T11:10:36;7.45;;;2.78;;
51686;SDS011;37774;52.192;4.584;2023-02-28T11:13:03;6.47;;;3.45;;
51686;SDS011;37774;52.192;4.584;2023-02-28T11:15:32;7.85;;;3.35;;
51686;SDS011;37774;52.192;4.584;2023-02-28T11:18:00;5.47;;;3.17;;
51686;SDS011;37774;52.192;4.584;2023-02-28T11:20:33;9.88;;;3.78;;
51686;SDS011;37774;52.192;4.584;2023-02-28T11:23:03;7.00;;;3.63;;
51686;SDS011;37774;52.192;4.584;2023-02-28T11:25:31;7.95;;;3.20;;
51686;SDS011;37774;52.192;4.584;2023-02-28T11:28:01;3.65;;;2.70;;
51686;SDS011;37774;52.192;4.584;2023-02-28T11:30:32;4.57;;;2.25;;
51686;SDS011;37774;52.192;4.584;2023-02-28T11:33:18;4.70;;;3.05;;
51686;SDS011;37774;52.192;4.584;2023-02-28T11:35:49;6.15;;;2.58;;
51686;SDS011;37774;52.192;4.584;2023-02-28T11:38:18;5.35;;;2.88;;
51686;SDS011;37774;52.192;4.584;2023-02-28T11:40:46;3.25;;;1.90;;
51686;SDS011;37774;52.192;4.584;2023-02-28T11:43:21;3.00;;;2.20;;
51686;SDS011;37774;52.192;4.584;2023-02-28T11:46:04;6.70;;;2.53;;
51686;SDS011;37774;52.192;4.584;2023-02-28T11:48:42;3.60;;;2.35;;
51686;SDS011;37774;52.192;4.584;2023-02-28T11:51:18;10.63;;;2.35;;
51686;SDS011;37774;52.192;4.584;2023-02-28T11:56:49;4.18;;;1.95;;
51686;SDS011;37774;52.192;4.584;2023-02-28T11:59:30;4.13;;;1.77;;
51686;SDS011;37774;52.192;4.584;2023-02-28T12:02:23;2.90;;;1.48;;
51686;SDS011;37774;52.192;4.584;2023-02-28T12:05:08;3.92;;;1.98;;
51686;SDS011;37774;52.192;4.584;2023-02-28T12:07:46;2.83;;;1.70;;
51686;SDS011;37774;52.192;4.584;2023-02-28T12:10:22;4.63;;;1.83;;
51686;SDS011;37774;52.192;4.584;2023-02-28T12:12:56;5.63;;;1.38;;
51686;SDS011;37774;52.192;4.584;2023-02-28T12:15:38;3.83;;;1.65;;
51686;SDS011;37774;52.192;4.584;2023-02-28T12:18:34;2.03;;;1.38;;
51686;SDS011;37774;52.192;4.584;2023-02-28T12:21:16;7.10;;;2.08;;
51686;SDS011;37774;52.192;4.584;2023-02-28T12:24:12;6.05;;;1.98;;
51686;SDS011;37774;52.192;4.584;2023-02-28T12:26:49;3.28;;;1.50;;
51686;SDS011;37774;52.192;4.584;2023-02-28T12:29:21;3.58;;;1.77;;
51686;SDS011;37774;52.192;4.584;2023-02-28T12:31:52;6.57;;;1.83;;
51686;SDS011;37774;52.192;4.584;2023-02-28T12:34:25;7.15;;;1.65;;
51686;SDS011;37774;52.192;4.584;2023-02-28T12:36:58;3.67;;;1.45;;
51686;SDS011;37774;52.192;4.584;2023-02-28T12:39:28;5.03;;;2.00;;
51686;SDS011;37774;52.192;4.584;2023-02-28T12:41:59;3.28;;;1.83;;
51686;SDS011;37774;52.192;4.584;2023-02-28T12:44:32;4.53;;;2.00;;
51686;SDS011;37774;52.192;4.584;2023-02-28T12:47:05;2.47;;;1.33;;
51686;SDS011;37774;52.192;4.584;2023-02-28T12:49:38;5.20;;;1.88;;
51686;SDS011;37774;52.192;4.584;2023-02-28T12:52:07;1.45;;;1.35;;
51686;SDS011;37774;52.192;4.584;2023-02-28T12:54:40;6.10;;;1.90;;
51686;SDS011;37774;52.192;4.584;2023-02-28T12:57:14;5.10;;;1.70;;
51686;SDS011;37774;52.192;4.584;2023-02-28T12:59:48;5.13;;;1.80;;
51686;SDS011;37774;52.192;4.584;2023-02-28T13:02:23;2.65;;;1.42;;
51686;SDS011;37774;52.192;4.584;2023-02-28T13:05:21;3.85;;;1.70;;
51686;SDS011;37774;52.192;4.584;2023-02-28T13:08:04;5.30;;;1.80;;
51686;SDS011;37774;52.192;4.584;2023-02-28T13:10:47;4.35;;;1.73;;
51686;SDS011;37774;52.192;4.584;2023-02-28T13:13:19;3.33;;;1.58;;
51686;SDS011;37774;52.192;4.584;2023-02-28T13:15:58;1.42;;;1.33;;
51686;SDS011;37774;52.192;4.584;2023-02-28T13:18:33;2.10;;;1.42;;
51686;SDS011;37774;52.192;4.584;2023-02-28T13:21:06;3.25;;;1.50;;
51686;SDS011;37774;52.192;4.584;2023-02-28T13:23:39;8.50;;;2.30;;
51686;SDS011;37774;52.192;4.584;2023-02-28T13:26:32;3.88;;;1.60;;
51686;SDS011;37774;52.192;4.584;2023-02-28T13:29:51;3.33;;;1.75;;
51686;SDS011;37774;52.192;4.584;2023-02-28T13:32:19;3.13;;;2.00;;
51686;SDS011;37774;52.192;4.584;2023-02-28T13:35:14;2.72;;;2.05;;
51686;SDS011;37774;52.192;4.584;2023-02-28T13:38:09;4.85;;;2.10;;
51686;SDS011;37774;52.192;4.584;2023-02-28T13:40:44;4.47;;;2.03;;
51686;SDS011;37774;52.192;4.584;2023-02-28T13:43:12;8.52;;;1.98;;
51686;SDS011;37774;52.192;4.584;2023-02-28T13:48:36;2.90;;;1.67;;
51686;SDS011;37774;52.192;4.584;2023-02-28T13:54:24;3.65;;;1.40;;
51686;SDS011;37774;52.192;4.584;2023-02-28T13:57:05;2.05;;;1.60;;
51686;SDS011;37774;52.192;4.584;2023-02-28T13:59:49;3.70;;;1.77;;
51686;SDS011;37774;52.192;4.584;2023-02-28T14:02:30;2.42;;;1.58;;
51686;SDS011;37774;52.192;4.584;2023-02-28T14:05:19;4.82;;;2.17;;
51686;SDS011;37774;52.192;4.584;2023-02-28T14:07:51;5.28;;;2.35;;
51686;SDS011;37774;52.192;4.584;2023-02-28T14:10:22;2.08;;;1.48;;
51686;SDS011;37774;52.192;4.584;2023-02-28T14:12:53;5.65;;;1.80;;
51686;SDS011;37774;52.192;4.584;2023-02-28T14:15:39;7.18;;;1.42;;
51686;SDS011;37774;52.192;4.584;2023-02-28T14:18:26;2.55;;;1.45;;
51686;SDS011;37774;52.192;4.584;2023-02-28T14:21:01;2.60;;;1.77;;
51686;SDS011;37774;52.192;4.584;2023-02-28T14:27:03;3.47;;;1.70;;
51686;SDS011;37774;52.192;4.584;2023-02-28T14:29:55;3.28;;;1.85;;
51686;SDS011;37774;52.192;4.584;2023-02-28T14:32:35;7.60;;;1.90;;
51686;SDS011;37774;52.192;4.584;2023-02-28T14:35:12;3.95;;;1.60;;
51686;SDS011;37774;52.192;4.584;2023-02-28T14:37:46;3.53;;;1.77;;
51686;SDS011;37774;52.192;4.584;2023-02-28T14:40:14;3.25;;;1.75;;
51686;SDS011;37774;52.192;4.584;2023-02-28T14:42:46;1.95;;;1.38;;
51686;SDS011;37774;52.192;4.584;2023-02-28T14:45:21;3.28;;;1.75;;
51686;SDS011;37774;52.192;4.584;2023-02-28T14:47:50;2.92;;;1.50;;
51686;SDS011;37774;52.192;4.584;2023-02-28T14:50:19;5.43;;;2.28;;
51686;SDS011;37774;52.192;4.584;2023-02-28T14:52:48;2.55;;;1.48;;
51686;SDS011;37774;52.192;4.584;2023-02-28T14:55:19;2.50;;;1.83;;
51686;SDS011;37774;52.192;4.584;2023-02-28T14:57:50;3.95;;;1.50;;
51686;SDS011;37774;52.192;4.584;2023-02-28T15:00:21;5.43;;;1.75;;
51686;SDS011;37774;52.192;4.584;2023-02-28T15:02:51;3.47;;;1.80;;
51686;SDS011;37774;52.192;4.584;2023-02-28T15:05:24;3.78;;;1.70;;
51686;SDS011;37774;52.192;4.584;2023-02-28T15:08:04;5.10;;;1.60;;
51686;SDS011;37774;52.192;4.584;2023-02-28T15:10:33;2.63;;;1.88;;
51686;SDS011;37774;52.192;4.584;2023-02-28T15:13:00;10.13;;;2.10;;
51686;SDS011;37774;52.192;4.584;2023-02-28T15:15:35;1.80;;;1.38;;
51686;SDS011;37774;52.192;4.584;2023-02-28T15:18:13;2.60;;;1.75;;
51686;SDS011;37774;52.192;4.584;2023-02-28T15:20:49;2.40;;;1.50;;
51686;SDS011;37774;52.192;4.584;2023-02-28T15:23:18;4.47;;;2.17;;
51686;SDS011;37774;52.192;4.584;2023-02-28T15:25:47;9.15;;;2.00;;
51686;SDS011;37774;52.192;4.584;2023-02-28T15:28:16;4.38;;;1.33;;